Time,TemperatureF,DewpointF,PressureIn,WindDirection,WindDirectionDegrees,WindSpeedMPH,WindSpeedGustMPH,Humidity,HourlyPrecipIn,Conditions,Clouds,dailyrainin,SolarRadiationWatts/m^2,SoftwareType,DateUTC
2013-06-17 00:00:00,46.6,33.9,29.89,WNW,296,0.0,0.0,61,0.00,,,0.00,0,Wunderground v.1.15,2013-06-17 06:00:00,
2013-06-17 00:10:00,45.4,34.7,29.89,WNW,296,1.0,3.0,66,0.00,,,0.00,0,Wunderground v.1.15,2013-06-17 06:10:00,
2013-06-17 00:20:00,45.4,34.3,29.90,NNW,338,2.0,5.0,65,0.00,,,0.00,0,Wunderground v.1.15,2013-06-17 06:20:00,
2013-06-17 00:30:00,46.2,32.7,29.90,NNE,13,5.0,5.0,59,0.00,,,0.00,0,Wunderground v.1.15,2013-06-17 06:30:00,
2013-06-17 00:41:00,46.9,33.3,29.90,NW,325,2.0,7.0,59,0.00,,,0.00,0,Wunderground v.1.15,2013-06-17 06:41:00,
2013-06-17 00:50:00,49.0,33.5,29.91,WNW,294,7.0,12.0,55,0.00,,,0.00,0,Wunderground v.1.15,2013-06-17 06:50:00,
2013-06-17 01:00:00,50.1,35.0,29.90,WNW,302,8.0,8.0,56,0.00,,,0.00,0,Wunderground v.1.15,2013-06-17 07:00:00,
2013-06-17 01:10:00,48.6,34.5,29.91,WNW,285,3.0,3.0,58,0.00,,,0.00,0,Wunderground v.1.15,2013-06-17 07:10:00,
2013-06-17 01:20:00,47.3,34.5,29.91,West,277,1.0,5.0,61,0.00,,,0.00,0,Wunderground v.1.15,2013-06-17 07:20:00,
2013-06-17 01:30:00,47.4,35.8,29.91,WNW,286,3.0,4.0,64,0.00,,,0.00,0,Wunderground v.1.15,2013-06-17 07:30:00,
2013-06-17 01:50:00,46.2,36.6,29.91,WSW,253,0.0,0.0,69,0.00,,,0.00,0,Wunderground v.1.15,2013-06-17 07:50:00,
2013-06-17 02:00:00,46.2,35.8,29.91,West,274,3.0,4.0,67,0.00,,,0.00,0,Wunderground v.1.15,2013-06-17 08:00:00,
2013-06-17 02:10:00,47.2,36.0,29.90,WSW,254,4.0,4.0,65,0.00,,,0.00,0,Wunderground v.1.15,2013-06-17 08:10:00,
2013-06-17 02:20:00,48.5,35.2,29.89,South,180,3.0,3.0,60,0.00,,,0.00,0,Wunderground v.1.15,2013-06-17 08:20:00,
2013-06-17 02:31:00,48.5,36.9,29.89,NW,313,2.0,2.0,64,0.00,,,0.00,0,Wunderground v.1.15,2013-06-17 08:31:00,
2013-06-17 02:41:00,46.8,35.6,29.89,NW,311,3.0,4.0,65,0.00,,,0.00,0,Wunderground v.1.15,2013-06-17 08:41:00,
2013-06-17 02:50:00,45.4,35.8,29.89,WNW,286,3.0,4.0,69,0.00,,,0.00,0,Wunderground v.1.15,2013-06-17 08:50:00,
2013-06-17 03:00:00,46.0,35.7,29.89,West,279,2.0,2.0,67,0.00,,,0.00,0,Wunderground v.1.15,2013-06-17 09:00:00,
2013-06-17 03:10:00,46.2,36.2,29.89,WNW,299,0.0,0.0,68,0.00,,,0.00,0,Wunderground v.1.15,2013-06-17 09:10:00,
2013-06-17 03:20:00,45.2,35.6,29.89,WNW,300,0.0,2.0,69,0.00,,,0.00,0,Wunderground v.1.15,2013-06-17 09:20:00,
2013-06-17 03:30:00,44.2,35.0,29.89,WNW,299,1.0,1.0,70,0.00,,,0.00,0,Wunderground v.1.15,2013-06-17 09:30:00,
2013-06-17 03:40:00,43.7,35.6,29.89,WNW,299,1.0,4.0,73,0.00,,,0.00,0,Wunderground v.1.15,2013-06-17 09:40:00,
2013-06-17 03:50:00,43.2,35.5,29.89,WNW,298,3.0,3.0,74,0.00,,,0.00,0,Wunderground v.1.15,2013-06-17 09:50:00,
2013-06-17 04:00:00,42.4,35.0,29.89,WNW,298,0.0,0.0,75,0.00,,,0.00,0,Wunderground v.1.15,2013-06-17 10:00:00,
2013-06-17 04:10:00,41.7,34.7,29.89,WNW,298,0.0,0.0,76,0.00,,,0.00,0,Wunderground v.1.15,2013-06-17 10:10:00,
2013-06-17 04:20:00,41.7,34.7,29.89,WNW,298,0.0,0.0,76,0.00,,,0.00,0,Wunderground v.1.15,2013-06-17 10:20:00,
2013-06-17 04:30:00,41.2,34.5,29.90,WNW,298,0.0,0.0,77,0.00,,,0.00,0,Wunderground v.1.15,2013-06-17 10:30:00,
2013-06-17 04:50:00,40.9,34.6,29.91,WNW,298,0.0,0.0,78,0.00,,,0.00,0,Wunderground v.1.15,2013-06-17 10:50:00,
2013-06-17 05:00:00,40.3,34.3,29.91,WNW,298,0.0,0.0,79,0.00,,,0.00,0,Wunderground v.1.15,2013-06-17 11:00:00,
2013-06-17 05:30:00,40.4,34.1,29.91,NW,307,4.0,4.0,78,0.00,,,0.00,0,Wunderground v.1.15,2013-06-17 11:30:00,
2013-06-17 05:40:00,40.0,34.0,29.91,West,277,3.0,3.0,79,0.00,,,0.00,9,Wunderground v.1.15,2013-06-17 11:40:00,
2013-06-17 06:00:00,40.5,34.5,29.91,NNW,331,0.0,0.0,79,0.00,,,0.00,21,Wunderground v.1.15,2013-06-17 12:00:00,
2013-06-17 06:10:00,41.2,34.9,29.91,NNW,346,0.0,0.0,78,0.00,,,0.00,28,Wunderground v.1.15,2013-06-17 12:10:00,
2013-06-17 06:20:00,42.0,36.6,29.91,NW,325,0.0,0.0,81,0.00,,,0.00,30,Wunderground v.1.15,2013-06-17 12:20:00,
2013-06-17 06:40:00,44.2,38.4,29.91,NNW,333,0.0,0.0,80,0.00,,,0.00,37,Wunderground v.1.15,2013-06-17 12:40:00,
2013-06-17 06:50:00,45.3,39.2,29.91,WNW,294,0.0,0.0,79,0.00,,,0.00,47,Wunderground v.1.15,2013-06-17 12:50:00,
2013-06-17 07:20:00,50.5,43.2,29.91,NNW,327,0.0,0.0,76,0.00,,,0.00,271,Wunderground v.1.15,2013-06-17 13:20:00,
2013-06-17 07:30:00,53.0,41.5,29.91,WNW,294,0.0,0.0,65,0.00,,,0.00,320,Wunderground v.1.15,2013-06-17 13:30:00,
2013-06-17 07:40:00,54.8,39.4,29.91,SE,138,1.0,1.0,56,0.00,,,0.00,355,Wunderground v.1.15,2013-06-17 13:40:00,
2013-06-17 08:00:00,56.6,39.2,29.91,East,90,0.0,0.0,52,0.00,,,0.00,424,Wunderground v.1.15,2013-06-17 14:00:00,
2013-06-17 08:10:00,57.6,39.1,29.91,East,94,0.0,0.0,50,0.00,,,0.00,459,Wunderground v.1.15,2013-06-17 14:10:00,
2013-06-17 08:40:00,59.5,41.3,29.91,East,96,0.0,0.0,51,0.00,,,0.00,555,Wunderground v.1.15,2013-06-17 14:40:00,
2013-06-17 08:50:00,60.5,41.2,29.91,ESE,116,0.0,1.0,49,0.00,,,0.00,591,Wunderground v.1.15,2013-06-17 14:50:00,
2013-06-17 09:20:00,63.5,42.9,29.91,East,82,5.0,5.0,47,0.00,,,0.00,679,Wunderground v.1.15,2013-06-17 15:20:00,
2013-06-17 09:30:00,64.0,42.8,29.91,East,79,7.0,7.0,46,0.00,,,0.00,712,Wunderground v.1.15,2013-06-17 15:30:00,
2013-06-17 10:00:00,65.7,41.3,29.90,East,99,8.0,8.0,41,0.00,,,0.00,879,Wunderground v.1.15,2013-06-17 16:00:00,
2013-06-17 10:10:00,65.4,39.8,29.90,East,98,6.0,7.0,39,0.00,,,0.00,91,Wunderground v.1.15,2013-06-17 16:10:00,
2013-06-17 10:40:00,65.4,39.8,29.90,East,80,2.0,2.0,39,0.00,,,0.00,984,Wunderground v.1.15,2013-06-17 16:40:00,
2013-06-17 10:50:00,67.5,40.3,29.89,NNE,13,1.0,1.0,37,0.00,,,0.00,214,Wunderground v.1.15,2013-06-17 16:50:00,
2013-06-17 11:20:00,67.9,38.5,29.89,ESE,111,5.0,5.0,34,0.00,,,0.00,213,Wunderground v.1.15,2013-06-17 17:20:00,
2013-06-17 11:30:00,68.9,39.4,29.89,East,84,2.0,8.0,34,0.00,,,0.00,708,Wunderground v.1.15,2013-06-17 17:30:00,
2013-06-17 12:00:00,71.9,31.0,29.89,WNW,298,5.0,5.0,22,0.00,,,0.00,230,Wunderground v.1.15,2013-06-17 18:00:00,
2013-06-17 12:10:00,73.0,34.1,29.89,NW,316,5.0,10.0,24,0.00,,,0.00,199,Wunderground v.1.15,2013-06-17 18:10:00,
2013-06-17 12:30:00,72.2,34.4,29.88,NNW,345,8.0,8.0,25,0.00,,,0.00,1171,Wunderground v.1.15,2013-06-17 18:30:00,
2013-06-17 12:40:00,73.4,31.1,29.88,NNE,14,7.0,11.0,21,0.00,,,0.00,1123,Wunderground v.1.15,2013-06-17 18:40:00,
2013-06-17 12:50:00,74.7,33.3,29.88,WSW,244,9.0,9.0,22,0.00,,,0.00,1172,Wunderground v.1.15,2013-06-17 18:50:00,
2013-06-17 13:10:00,71.3,29.3,29.88,WNW,297,9.0,9.0,21,0.00,,,0.00,1157,Wunderground v.1.15,2013-06-17 19:10:00,
2013-06-17 13:20:00,71.3,26.9,29.88,NW,317,7.0,7.0,19,0.00,,,0.00,1113,Wunderground v.1.15,2013-06-17 19:20:00,
2013-06-17 13:30:00,73.3,28.5,29.88,NW,325,6.0,17.0,19,0.00,,,0.00,1093,Wunderground v.1.15,2013-06-17 19:30:00,
2013-06-17 13:50:00,72.9,30.6,29.88,NW,308,10.0,19.0,21,0.00,,,0.00,1120,Wunderground v.1.15,2013-06-17 19:50:00,
2013-06-17 14:00:00,74.1,31.6,29.88,WNW,282,10.0,10.0,21,0.00,,,0.00,1062,Wunderground v.1.15,2013-06-17 20:00:00,
2013-06-17 14:30:00,70.2,46.0,29.88,ESE,106,17.0,17.0,42,0.00,,,0.00,250,Wunderground v.1.15,2013-06-17 20:30:00,
2013-06-17 14:40:00,66.3,44.9,29.88,East,92,12.0,12.0,46,0.00,,,0.00,323,Wunderground v.1.15,2013-06-17 20:40:00,
2013-06-17 15:10:00,69.2,42.5,29.87,ESE,119,11.0,11.0,38,0.00,,,0.00,1027,Wunderground v.1.15,2013-06-17 21:10:00,
2013-06-17 15:20:00,67.5,41.7,29.87,NNE,20,9.0,9.0,39,0.00,,,0.00,227,Wunderground v.1.15,2013-06-17 21:20:00,
2013-06-17 15:31:00,70.0,43.9,29.86,NNE,23,4.0,10.0,39,0.00,,,0.00,898,Wunderground v.1.15,2013-06-17 21:31:00,
2013-06-17 15:50:00,71.5,41.6,29.85,WNW,292,1.0,1.0,34,0.00,,,0.00,817,Wunderground v.1.15,2013-06-17 21:50:00,
2013-06-17 16:00:00,71.4,40.0,29.83,SSW,210,1.0,1.0,32,0.00,,,0.00,851,Wunderground v.1.15,2013-06-17 22:00:00,
2013-06-17 16:20:00,69.2,41.1,29.83,WSW,245,0.0,0.0,36,0.00,,,0.00,197,Wunderground v.1.15,2013-06-17 22:20:00,
2013-06-17 16:30:00,69.0,42.3,29.83,WSW,244,0.0,0.0,38,0.00,,,0.00,162,Wunderground v.1.15,2013-06-17 22:30:00,
2013-06-17 17:00:00,69.3,39.7,29.83,NNE,22,5.0,5.0,34,0.00,,,0.00,165,Wunderground v.1.15,2013-06-17 23:00:00,
2013-06-17 17:10:00,68.7,39.2,29.83,NE,38,3.0,7.0,34,0.00,,,0.00,204,Wunderground v.1.15,2013-06-17 23:10:00,
2013-06-17 17:21:00,68.2,39.5,29.83,ENE,59,7.0,7.0,35,0.00,,,0.00,517,Wunderground v.1.15,2013-06-17 23:21:00,
2013-06-17 17:40:00,69.9,38.7,29.83,East,93,9.0,9.0,32,0.00,,,0.00,134,Wunderground v.1.15,2013-06-17 23:40:00,
2013-06-17 17:50:00,68.3,38.1,29.83,ENE,61,4.0,4.0,33,0.00,,,0.00,102,Wunderground v.1.15,2013-06-17 23:50:00,
2013-06-17 18:20:00,67.3,38.7,29.82,ENE,67,1.0,1.0,35,0.00,,,0.00,362,Wunderground v.1.15,2013-06-18 00:20:00,
2013-06-17 18:30:00,67.9,39.2,29.81,East,90,4.0,7.0,35,0.00,,,0.00,352,Wunderground v.1.15,2013-06-18 00:30:00,
2013-06-17 19:00:00,66.2,43.0,29.81,SE,138,0.0,0.0,43,0.00,,,0.00,199,Wunderground v.1.15,2013-06-18 01:00:00,
2013-06-17 19:10:00,64.3,42.5,29.81,SSW,204,1.0,1.0,45,0.00,,,0.00,47,Wunderground v.1.15,2013-06-18 01:10:00,
2013-06-17 19:40:00,58.5,42.4,29.81,WSW,240,1.0,1.0,55,0.00,,,0.00,35,Wunderground v.1.15,2013-06-18 01:40:00,
2013-06-17 19:50:00,58.0,42.4,29.81,WSW,244,1.0,1.0,56,0.00,,,0.00,42,Wunderground v.1.15,2013-06-18 01:50:00,
2013-06-17 20:10:00,58.7,40.6,29.82,NW,307,2.0,2.0,51,0.00,,,0.00,19,Wunderground v.1.15,2013-06-18 02:10:00,
2013-06-17 20:20:00,58.3,41.7,29.82,NW,324,0.0,0.0,54,0.00,,,0.00,9,Wunderground v.1.15,2013-06-18 02:20:00,
2013-06-17 20:30:00,56.8,41.3,29.83,NW,307,0.0,3.0,56,0.00,,,0.00,5,Wunderground v.1.15,2013-06-18 02:30:00,
2013-06-17 20:50:00,55.4,40.0,29.83,WNW,300,1.0,3.0,56,0.00,,,0.00,0,Wunderground v.1.15,2013-06-18 02:50:00,
2013-06-17 21:00:00,55.1,37.8,29.84,WNW,291,2.0,2.0,52,0.00,,,0.00,0,Wunderground v.1.15,2013-06-18 03:00:00,
2013-06-17 21:10:00,55.6,38.2,29.84,NW,306,2.0,2.0,52,0.00,,,0.00,0,Wunderground v.1.15,2013-06-18 03:10:00,
2013-06-17 21:30:00,55.9,37.0,29.85,North,355,3.0,5.0,49,0.00,,,0.00,0,Wunderground v.1.15,2013-06-18 03:30:00,
2013-06-17 21:40:00,55.8,37.4,29.85,NNW,336,3.0,3.0,50,0.00,,,0.00,0,Wunderground v.1.15,2013-06-18 03:40:00,
2013-06-17 22:00:00,55.3,37.5,29.86,NNW,330,3.0,3.0,51,0.00,,,0.00,0,Wunderground v.1.15,2013-06-18 04:00:00,
2013-06-17 22:10:00,55.2,38.4,29.86,NNW,331,3.0,3.0,53,0.00,,,0.00,0,Wunderground v.1.15,2013-06-18 04:10:00,
2013-06-17 22:21:00,54.6,38.3,29.87,NNE,17,0.0,0.0,54,0.00,,,0.00,0,Wunderground v.1.15,2013-06-18 04:21:00,
2013-06-17 22:40:00,54.5,42.6,29.88,NNE,31,7.0,7.0,64,0.00,,,0.00,0,Wunderground v.1.15,2013-06-18 04:40:00,
2013-06-17 22:50:00,53.9,42.4,29.87,NW,322,3.0,3.0,65,0.00,,,0.00,0,Wunderground v.1.15,2013-06-18 04:50:00,
2013-06-17 23:00:00,53.0,41.1,29.87,West,276,4.0,4.0,64,0.00,,,0.00,0,Wunderground v.1.15,2013-06-18 05:00:00,
2013-06-17 23:20:00,53.4,42.3,29.87,NNW,348,6.0,6.0,66,0.00,,,0.00,0,Wunderground v.1.15,2013-06-18 05:20:00,
2013-06-17 23:30:00,53.1,42.0,29.86,WNW,298,4.0,6.0,66,0.00,,,0.00,0,Wunderground v.1.15,2013-06-18 05:30:00,
2013-06-17 23:40:00,52.2,42.0,29.86,NW,317,4.0,4.0,68,0.00,,,0.00,0,Wunderground v.1.15,2013-06-18 05:40:00,
2013-06-17 23:50:00,52.1,42.2,29.86,NW,319,3.0,3.0,69,0.00,,,0.00,0,Wunderground v.1.15,2013-06-18 05:50:00,